sensor_id;sensor_type;location;lat;lon;timestamp;P1;durP1;ratioP1;P2;durP2;ratioP2
64842;SDS011;51310;52.198;5.422;2022-12-18T00:01:15;68.17;;;25.90;;
64842;SDS011;51310;52.198;5.422;2022-12-18T00:03:51;72.50;;;28.70;;
64842;SDS011;51310;52.198;5.422;2022-12-18T00:06:19;75.03;;;28.70;;
64842;SDS011;51310;52.198;5.422;2022-12-18T00:08:46;67.10;;;28.15;;
64842;SDS011;51310;52.198;5.422;2022-12-18T00:11:14;76.72;;;28.75;;
64842;SDS011;51310;52.198;5.422;2022-12-18T00:13:43;72.63;;;28.25;;
64842;SDS011;51310;52.198;5.422;2022-12-18T00:16:11;72.15;;;27.88;;
64842;SDS011;51310;52.198;5.422;2022-12-18T00:18:43;80.38;;;29.10;;
64842;SDS011;51310;52.198;5.422;2022-12-18T00:21:10;77.32;;;29.67;;
64842;SDS011;51310;52.198;5.422;2022-12-18T00:23:39;90.68;;;31.70;;
64842;SDS011;51310;52.198;5.422;2022-12-18T00:26:29;79.47;;;30.75;;
64842;SDS011;51310;52.198;5.422;2022-12-18T00:29:07;76.03;;;29.47;;
64842;SDS011;51310;52.198;5.422;2022-12-18T00:31:39;83.53;;;30.52;;
64842;SDS011;51310;52.198;5.422;2022-12-18T00:34:08;73.88;;;28.23;;
64842;SDS011;51310;52.198;5.422;2022-12-18T00:36:39;77.18;;;29.20;;
64842;SDS011;51310;52.198;5.422;2022-12-18T00:39:06;79.03;;;30.23;;
64842;SDS011;51310;52.198;5.422;2022-12-18T00:41:32;81.82;;;30.80;;
64842;SDS011;51310;52.198;5.422;2022-12-18T00:44:24;77.47;;;29.88;;
64842;SDS011;51310;52.198;5.422;2022-12-18T00:46:50;84.80;;;31.90;;
64842;SDS011;51310;52.198;5.422;2022-12-18T00:49:16;79.22;;;29.90;;
64842;SDS011;51310;52.198;5.422;2022-12-18T00:51:44;84.77;;;30.03;;
64842;SDS011;51310;52.198;5.422;2022-12-18T00:54:10;77.10;;;29.80;;
64842;SDS011;51310;52.198;5.422;2022-12-18T00:56:37;88.07;;;30.77;;
64842;SDS011;51310;52.198;5.422;2022-12-18T00:59:04;76.50;;;29.75;;
64842;SDS011;51310;52.198;5.422;2022-12-18T01:01:30;88.80;;;31.45;;
64842;SDS011;51310;52.198;5.422;2022-12-18T01:03:57;80.75;;;30.23;;
64842;SDS011;51310;52.198;5.422;2022-12-18T01:06:26;87.47;;;31.15;;
64842;SDS011;51310;52.198;5.422;2022-12-18T01:08:52;87.50;;;31.17;;
64842;SDS011;51310;52.198;5.422;2022-12-18T01:11:18;81.68;;;32.17;;
64842;SDS011;51310;52.198;5.422;2022-12-18T01:13:46;86.15;;;31.23;;
64842;SDS011;51310;52.198;5.422;2022-12-18T01:16:13;79.57;;;29.17;;
64842;SDS011;51310;52.198;5.422;2022-12-18T01:18:42;79.22;;;29.15;;
64842;SDS011;51310;52.198;5.422;2022-12-18T01:21:08;78.63;;;28.70;;
64842;SDS011;51310;52.198;5.422;2022-12-18T01:23:39;83.30;;;32.28;;
64842;SDS011;51310;52.198;5.422;2022-12-18T01:26:09;84.70;;;30.88;;
64842;SDS011;51310;52.198;5.422;2022-12-18T01:28:40;83.03;;;30.63;;
64842;SDS011;51310;52.198;5.422;2022-12-18T01:31:20;83.88;;;31.83;;
64842;SDS011;51310;52.198;5.422;2022-12-18T01:33:54;90.13;;;29.35;;
64842;SDS011;51310;52.198;5.422;2022-12-18T01:36:28;83.65;;;30.10;;
64842;SDS011;51310;52.198;5.422;2022-12-18T01:39:01;79.18;;;29.02;;
64842;SDS011;51310;52.198;5.422;2022-12-18T01:41:33;86.70;;;30.45;;
64842;SDS011;51310;52.198;5.422;2022-12-18T01:47:30;80.30;;;30.40;;
64842;SDS011;51310;52.198;5.422;2022-12-18T01:50:18;76.63;;;30.90;;
64842;SDS011;51310;52.198;5.422;2022-12-18T01:53:17;77.68;;;29.58;;
64842;SDS011;51310;52.198;5.422;2022-12-18T01:55:50;85.80;;;30.35;;
64842;SDS011;51310;52.198;5.422;2022-12-18T01:58:22;78.30;;;30.30;;
64842;SDS011;51310;52.198;5.422;2022-12-18T02:01:00;77.25;;;30.30;;
64842;SDS011;51310;52.198;5.422;2022-12-18T02:03:26;82.35;;;30.77;;
64842;SDS011;51310;52.198;5.422;2022-12-18T02:05:58;73.37;;;29.30;;
64842;SDS011;51310;52.198;5.422;2022-12-18T02:08:53;75.88;;;31.45;;
64842;SDS011;51310;52.198;5.422;2022-12-18T02:15:07;86.68;;;31.00;;
64842;SDS011;51310;52.198;5.422;2022-12-18T02:17:50;75.50;;;27.70;;
64842;SDS011;51310;52.198;5.422;2022-12-18T02:20:28;75.00;;;29.85;;
64842;SDS011;51310;52.198;5.422;2022-12-18T02:26:46;78.10;;;29.70;;
64842;SDS011;51310;52.198;5.422;2022-12-18T02:29:41;79.95;;;29.58;;
64842;SDS011;51310;52.198;5.422;2022-12-18T02:32:17;72.15;;;27.80;;
64842;SDS011;51310;52.198;5.422;2022-12-18T02:34:52;77.45;;;29.80;;
64842;SDS011;51310;52.198;5.422;2022-12-18T02:37:22;73.38;;;28.50;;
64842;SDS011;51310;52.198;5.422;2022-12-18T02:39:53;68.97;;;28.17;;
64842;SDS011;51310;52.198;5.422;2022-12-18T02:42:23;61.95;;;27.55;;
64842;SDS011;51310;52.198;5.422;2022-12-18T02:44:55;77.45;;;27.55;;
64842;SDS011;51310;52.198;5.422;2022-12-18T02:47:23;70.75;;;26.08;;
64842;SDS011;51310;52.198;5.422;2022-12-18T02:52:39;68.67;;;28.23;;
64842;SDS011;51310;52.198;5.422;2022-12-18T03:04:49;59.60;;;25.27;;
64842;SDS011;51310;52.198;5.422;2022-12-18T03:07:26;66.73;;;25.40;;
64842;SDS011;51310;52.198;5.422;2022-12-18T03:10:14;62.85;;;25.40;;
64842;SDS011;51310;52.198;5.422;2022-12-18T03:12:52;61.72;;;25.92;;
64842;SDS011;51310;52.198;5.422;2022-12-18T03:16:00;61.78;;;26.20;;
64842;SDS011;51310;52.198;5.422;2022-12-18T03:18:35;57.60;;;24.88;;
64842;SDS011;51310;52.198;5.422;2022-12-18T03:21:20;57.03;;;23.73;;
64842;SDS011;51310;52.198;5.422;2022-12-18T03:23:54;59.53;;;24.33;;
64842;SDS011;51310;52.198;5.422;2022-12-18T03:26:22;57.38;;;24.58;;
64842;SDS011;51310;52.198;5.422;2022-12-18T03:28:59;58.92;;;25.25;;
64842;SDS011;51310;52.198;5.422;2022-12-18T03:31:39;60.40;;;25.13;;
64842;SDS011;51310;52.198;5.422;2022-12-18T03:34:13;60.50;;;24.80;;
64842;SDS011;51310;52.198;5.422;2022-12-18T03:36:52;57.57;;;25.50;;
64842;SDS011;51310;52.198;5.422;2022-12-18T03:39:18;59.80;;;24.48;;
64842;SDS011;51310;52.198;5.422;2022-12-18T03:47:14;56.97;;;22.95;;
64842;SDS011;51310;52.198;5.422;2022-12-18T03:50:11;59.85;;;23.95;;
64842;SDS011;51310;52.198;5.422;2022-12-18T03:53:09;53.85;;;23.38;;
64842;SDS011;51310;52.198;5.422;2022-12-18T03:56:19;49.92;;;22.60;;
64842;SDS011;51310;52.198;5.422;2022-12-18T03:58:52;48.83;;;21.70;;
64842;SDS011;51310;52.198;5.422;2022-12-18T04:01:20;50.85;;;21.40;;
64842;SDS011;51310;52.198;5.422;2022-12-18T04:03:54;54.60;;;22.08;;
64842;SDS011;51310;52.198;5.422;2022-12-18T04:06:24;50.92;;;21.13;;
64842;SDS011;51310;52.198;5.422;2022-12-18T04:08:52;48.40;;;21.77;;
64842;SDS011;51310;52.198;5.422;2022-12-18T04:11:18;51.35;;;21.63;;
64842;SDS011;51310;52.198;5.422;2022-12-18T04:13:44;42.50;;;20.50;;
64842;SDS011;51310;52.198;5.422;2022-12-18T04:16:10;47.20;;;22.00;;
64842;SDS011;51310;52.198;5.422;2022-12-18T04:18:36;50.17;;;22.53;;
64842;SDS011;51310;52.198;5.422;2022-12-18T04:21:02;57.25;;;22.33;;
64842;SDS011;51310;52.198;5.422;2022-12-18T04:23:28;49.53;;;22.67;;
64842;SDS011;51310;52.198;5.422;2022-12-18T04:25:54;52.35;;;22.50;;
64842;SDS011;51310;52.198;5.422;2022-12-18T04:28:20;48.80;;;22.40;;
64842;SDS011;51310;52.198;5.422;2022-12-18T04:30:49;51.47;;;21.27;;
64842;SDS011;51310;52.198;5.422;2022-12-18T04:33:18;46.35;;;20.65;;
64842;SDS011;51310;52.198;5.422;2022-12-18T04:35:44;52.08;;;21.48;;
64842;SDS011;51310;52.198;5.422;2022-12-18T04:38:10;48.80;;;21.30;;
64842;SDS011;51310;52.198;5.422;2022-12-18T04:40:37;51.47;;;22.48;;
64842;SDS011;51310;52.198;5.422;2022-12-18T04:43:04;47.95;;;20.63;;
64842;SDS011;51310;52.198;5.422;2022-12-18T04:45:30;53.08;;;22.38;;
64842;SDS011;51310;52.198;5.422;2022-12-18T04:47:57;48.85;;;22.38;;
64842;SDS011;51310;52.198;5.422;2022-12-18T04:50:24;51.27;;;23.30;;
64842;SDS011;51310;52.198;5.422;2022-12-18T04:52:50;48.08;;;22.40;;
64842;SDS011;51310;52.198;5.422;2022-12-18T04:55:16;47.15;;;20.67;;
64842;SDS011;51310;52.198;5.422;2022-12-18T04:57:42;44.00;;;20.73;;
64842;SDS011;51310;52.198;5.422;2022-12-18T05:00:08;46.42;;;21.13;;
64842;SDS011;51310;52.198;5.422;2022-12-18T05:02:35;43.53;;;19.67;;
64842;SDS011;51310;52.198;5.422;2022-12-18T05:05:01;45.30;;;20.50;;
64842;SDS011;51310;52.198;5.422;2022-12-18T05:07:28;43.20;;;19.20;;
64842;SDS011;51310;52.198;5.422;2022-12-18T05:09:54;46.40;;;19.40;;
64842;SDS011;51310;52.198;5.422;2022-12-18T05:12:23;47.63;;;19.60;;
64842;SDS011;51310;52.198;5.422;2022-12-18T05:14:49;40.50;;;18.73;;
64842;SDS011;51310;52.198;5.422;2022-12-18T05:17:15;42.45;;;18.85;;
64842;SDS011;51310;52.198;5.422;2022-12-18T05:19:41;48.33;;;19.73;;
64842;SDS011;51310;52.198;5.422;2022-12-18T05:22:07;43.40;;;18.87;;
64842;SDS011;51310;52.198;5.422;2022-12-18T05:24:33;38.38;;;18.60;;
64842;SDS011;51310;52.198;5.422;2022-12-18T05:26:59;41.42;;;18.55;;
64842;SDS011;51310;52.198;5.422;2022-12-18T05:29:25;40.92;;;19.27;;
64842;SDS011;51310;52.198;5.422;2022-12-18T05:31:51;41.90;;;18.38;;
64842;SDS011;51310;52.198;5.422;2022-12-18T05:34:17;37.60;;;18.23;;
64842;SDS011;51310;52.198;5.422;2022-12-18T05:36:43;40.75;;;19.08;;
64842;SDS011;51310;52.198;5.422;2022-12-18T05:39:09;40.75;;;18.63;;
64842;SDS011;51310;52.198;5.422;2022-12-18T05:41:35;38.97;;;18.48;;
64842;SDS011;51310;52.198;5.422;2022-12-18T05:44:01;36.63;;;18.10;;
64842;SDS011;51310;52.198;5.422;2022-12-18T05:46:27;37.70;;;17.80;;
64842;SDS011;51310;52.198;5.422;2022-12-18T05:48:52;40.15;;;17.65;;
64842;SDS011;51310;52.198;5.422;2022-12-18T05:51:19;44.65;;;19.60;;
64842;SDS011;51310;52.198;5.422;2022-12-18T05:53:47;41.43;;;18.20;;
64842;SDS011;51310;52.198;5.422;2022-12-18T05:56:14;42.10;;;18.70;;
64842;SDS011;51310;52.198;5.422;2022-12-18T05:58:46;45.25;;;20.08;;
64842;SDS011;51310;52.198;5.422;2022-12-18T06:01:17;40.80;;;19.23;;
64842;SDS011;51310;52.198;5.422;2022-12-18T06:03:48;42.60;;;19.55;;
64842;SDS011;51310;52.198;5.422;2022-12-18T06:06:19;44.00;;;20.80;;
64842;SDS011;51310;52.198;5.422;2022-12-18T06:08:52;44.80;;;19.63;;
64842;SDS011;51310;52.198;5.422;2022-12-18T06:11:21;41.80;;;19.27;;
64842;SDS011;51310;52.198;5.422;2022-12-18T06:13:51;40.75;;;18.00;;
64842;SDS011;51310;52.198;5.422;2022-12-18T06:16:20;37.30;;;17.70;;
64842;SDS011;51310;52.198;5.422;2022-12-18T06:18:46;39.55;;;18.35;;
64842;SDS011;51310;52.198;5.422;2022-12-18T06:21:12;40.17;;;17.95;;
64842;SDS011;51310;52.198;5.422;2022-12-18T06:23:38;35.57;;;17.70;;
64842;SDS011;51310;52.198;5.422;2022-12-18T06:26:05;37.33;;;17.10;;
64842;SDS011;51310;52.198;5.422;2022-12-18T06:28:34;36.58;;;18.17;;
64842;SDS011;51310;52.198;5.422;2022-12-18T06:31:02;39.65;;;18.63;;
64842;SDS011;51310;52.198;5.422;2022-12-18T06:33:29;38.33;;;17.02;;
64842;SDS011;51310;52.198;5.422;2022-12-18T06:36:06;40.05;;;18.40;;
64842;SDS011;51310;52.198;5.422;2022-12-18T06:38:36;34.60;;;17.17;;
64842;SDS011;51310;52.198;5.422;2022-12-18T06:41:07;37.92;;;16.30;;
64842;SDS011;51310;52.198;5.422;2022-12-18T06:43:35;33.33;;;15.77;;
64842;SDS011;51310;52.198;5.422;2022-12-18T06:46:01;35.30;;;15.88;;
64842;SDS011;51310;52.198;5.422;2022-12-18T06:48:29;33.65;;;16.02;;
64842;SDS011;51310;52.198;5.422;2022-12-18T06:50:55;36.53;;;16.73;;
64842;SDS011;51310;52.198;5.422;2022-12-18T06:53:21;35.38;;;16.58;;
64842;SDS011;51310;52.198;5.422;2022-12-18T06:55:47;33.77;;;15.40;;
64842;SDS011;51310;52.198;5.422;2022-12-18T06:58:13;32.85;;;16.40;;
64842;SDS011;51310;52.198;5.422;2022-12-18T07:00:40;41.05;;;15.88;;
64842;SDS011;51310;52.198;5.422;2022-12-18T07:03:06;36.87;;;16.30;;
64842;SDS011;51310;52.198;5.422;2022-12-18T07:05:32;34.47;;;14.88;;
64842;SDS011;51310;52.198;5.422;2022-12-18T07:07:58;32.15;;;15.10;;
64842;SDS011;51310;52.198;5.422;2022-12-18T07:10:24;27.37;;;14.57;;
64842;SDS011;51310;52.198;5.422;2022-12-18T07:12:51;28.95;;;14.93;;
64842;SDS011;51310;52.198;5.422;2022-12-18T07:15:17;33.40;;;15.15;;
64842;SDS011;51310;52.198;5.422;2022-12-18T07:17:42;30.25;;;15.65;;
64842;SDS011;51310;52.198;5.422;2022-12-18T07:20:08;36.03;;;15.75;;
64842;SDS011;51310;52.198;5.422;2022-12-18T07:22:35;29.65;;;14.30;;
64842;SDS011;51310;52.198;5.422;2022-12-18T07:25:01;31.75;;;14.70;;
64842;SDS011;51310;52.198;5.422;2022-12-18T07:27:27;29.90;;;15.03;;
64842;SDS011;51310;52.198;5.422;2022-12-18T07:29:52;28.85;;;14.70;;
64842;SDS011;51310;52.198;5.422;2022-12-18T07:32:19;33.22;;;16.13;;
64842;SDS011;51310;52.198;5.422;2022-12-18T07:34:45;31.10;;;15.20;;
64842;SDS011;51310;52.198;5.422;2022-12-18T07:37:11;28.73;;;15.00;;
64842;SDS011;51310;52.198;5.422;2022-12-18T07:39:37;33.63;;;15.00;;
64842;SDS011;51310;52.198;5.422;2022-12-18T07:42:03;32.53;;;16.02;;
64842;SDS011;51310;52.198;5.422;2022-12-18T07:44:51;31.13;;;15.10;;
64842;SDS011;51310;52.198;5.422;2022-12-18T07:47:16;32.78;;;15.88;;
64842;SDS011;51310;52.198;5.422;2022-12-18T07:49:42;32.00;;;16.60;;
64842;SDS011;51310;52.198;5.422;2022-12-18T07:52:08;33.17;;;16.33;;
64842;SDS011;51310;52.198;5.422;2022-12-18T07:54:34;34.20;;;17.50;;
64842;SDS011;51310;52.198;5.422;2022-12-18T07:57:00;37.70;;;15.68;;
64842;SDS011;51310;52.198;5.422;2022-12-18T07:59:26;32.13;;;15.90;;
64842;SDS011;51310;52.198;5.422;2022-12-18T08:01:52;32.30;;;15.97;;
64842;SDS011;51310;52.198;5.422;2022-12-18T08:04:17;30.73;;;15.90;;
64842;SDS011;51310;52.198;5.422;2022-12-18T08:06:43;29.25;;;15.52;;
64842;SDS011;51310;52.198;5.422;2022-12-18T08:09:09;34.42;;;17.52;;
64842;SDS011;51310;52.198;5.422;2022-12-18T08:11:35;35.88;;;16.38;;
64842;SDS011;51310;52.198;5.422;2022-12-18T08:14:01;36.15;;;16.70;;
64842;SDS011;51310;52.198;5.422;2022-12-18T08:16:27;32.35;;;16.50;;
64842;SDS011;51310;52.198;5.422;2022-12-18T08:18:53;36.07;;;16.87;;
64842;SDS011;51310;52.198;5.422;2022-12-18T08:21:21;36.47;;;17.45;;
64842;SDS011;51310;52.198;5.422;2022-12-18T08:23:55;32.03;;;15.82;;
64842;SDS011;51310;52.198;5.422;2022-12-18T08:26:24;31.77;;;16.80;;
64842;SDS011;51310;52.198;5.422;2022-12-18T08:28:54;31.30;;;16.42;;
64842;SDS011;51310;52.198;5.422;2022-12-18T08:31:23;33.47;;;15.70;;
64842;SDS011;51310;52.198;5.422;2022-12-18T08:33:52;26.77;;;14.88;;
64842;SDS011;51310;52.198;5.422;2022-12-18T08:36:19;27.83;;;15.90;;
64842;SDS011;51310;52.198;5.422;2022-12-18T08:38:46;31.48;;;15.30;;
64842;SDS011;51310;52.198;5.422;2022-12-18T08:41:13;28.70;;;14.90;;
64842;SDS011;51310;52.198;5.422;2022-12-18T08:43:41;31.80;;;15.40;;
64842;SDS011;51310;52.198;5.422;2022-12-18T08:46:26;27.88;;;14.65;;
64842;SDS011;51310;52.198;5.422;2022-12-18T08:48:59;30.02;;;15.35;;
64842;SDS011;51310;52.198;5.422;2022-12-18T08:51:25;31.00;;;14.02;;
64842;SDS011;51310;52.198;5.422;2022-12-18T08:53:51;28.23;;;14.30;;
64842;SDS011;51310;52.198;5.422;2022-12-18T08:56:17;27.03;;;14.50;;
64842;SDS011;51310;52.198;5.422;2022-12-18T08:58:43;29.20;;;14.60;;
64842;SDS011;51310;52.198;5.422;2022-12-18T09:01:10;29.23;;;14.05;;
64842;SDS011;51310;52.198;5.422;2022-12-18T09:03:38;28.77;;;15.13;;
64842;SDS011;51310;52.198;5.422;2022-12-18T09:06:05;26.52;;;14.73;;
64842;SDS011;51310;52.198;5.422;2022-12-18T09:08:35;24.38;;;13.57;;
64842;SDS011;51310;52.198;5.422;2022-12-18T09:11:01;28.25;;;14.80;;
64842;SDS011;51310;52.198;5.422;2022-12-18T09:13:28;29.02;;;14.75;;
64842;SDS011;51310;52.198;5.422;2022-12-18T09:15:54;31.33;;;14.80;;
64842;SDS011;51310;52.198;5.422;2022-12-18T09:18:21;29.67;;;15.23;;
64842;SDS011;51310;52.198;5.422;2022-12-18T09:20:48;27.23;;;14.35;;
64842;SDS011;51310;52.198;5.422;2022-12-18T09:23:18;25.58;;;13.85;;
64842;SDS011;51310;52.198;5.422;2022-12-18T09:25:45;29.17;;;14.40;;
64842;SDS011;51310;52.198;5.422;2022-12-18T09:28:15;25.38;;;13.57;;
64842;SDS011;51310;52.198;5.422;2022-12-18T09:30:44;26.63;;;14.18;;
64842;SDS011;51310;52.198;5.422;2022-12-18T09:33:14;22.60;;;11.88;;
64842;SDS011;51310;52.198;5.422;2022-12-18T09:35:42;27.88;;;14.07;;
64842;SDS011;51310;52.198;5.422;2022-12-18T09:38:15;23.57;;;12.53;;
64842;SDS011;51310;52.198;5.422;2022-12-18T09:40:48;26.42;;;14.40;;
64842;SDS011;51310;52.198;5.422;2022-12-18T09:43:20;25.63;;;13.47;;
64842;SDS011;51310;52.198;5.422;2022-12-18T09:46:18;23.33;;;12.93;;
64842;SDS011;51310;52.198;5.422;2022-12-18T09:49:00;23.20;;;12.77;;
64842;SDS011;51310;52.198;5.422;2022-12-18T09:51:39;27.42;;;12.50;;
64842;SDS011;51310;52.198;5.422;2022-12-18T09:54:45;22.80;;;12.75;;
64842;SDS011;51310;52.198;5.422;2022-12-18T09:57:39;29.30;;;13.57;;
64842;SDS011;51310;52.198;5.422;2022-12-18T10:00:22;24.27;;;12.35;;
64842;SDS011;51310;52.198;5.422;2022-12-18T10:02:51;24.58;;;12.57;;
64842;SDS011;51310;52.198;5.422;2022-12-18T10:11:20;22.17;;;12.03;;
64842;SDS011;51310;52.198;5.422;2022-12-18T10:26:43;22.58;;;11.85;;
64842;SDS011;51310;52.198;5.422;2022-12-18T10:29:17;20.27;;;10.65;;
64842;SDS011;51310;52.198;5.422;2022-12-18T10:31:43;22.35;;;10.73;;
64842;SDS011;51310;52.198;5.422;2022-12-18T10:34:10;22.33;;;9.82;;
64842;SDS011;51310;52.198;5.422;2022-12-18T10:36:39;19.85;;;10.07;;
64842;SDS011;51310;52.198;5.422;2022-12-18T10:39:23;21.55;;;10.40;;
64842;SDS011;51310;52.198;5.422;2022-12-18T10:41:56;20.17;;;10.25;;
64842;SDS011;51310;52.198;5.422;2022-12-18T10:44:44;20.47;;;10.33;;
64842;SDS011;51310;52.198;5.422;2022-12-18T10:47:12;17.10;;;9.70;;
64842;SDS011;51310;52.198;5.422;2022-12-18T10:49:47;20.17;;;10.68;;
64842;SDS011;51310;52.198;5.422;2022-12-18T10:52:21;20.13;;;10.43;;
64842;SDS011;51310;52.198;5.422;2022-12-18T11:00:00;18.83;;;10.65;;
64842;SDS011;51310;52.198;5.422;2022-12-18T11:02:51;16.73;;;9.90;;
64842;SDS011;51310;52.198;5.422;2022-12-18T11:05:24;17.27;;;9.32;;
64842;SDS011;51310;52.198;5.422;2022-12-18T11:07:55;18.73;;;10.30;;
64842;SDS011;51310;52.198;5.422;2022-12-18T11:10:26;18.05;;;9.52;;
64842;SDS011;51310;52.198;5.422;2022-12-18T11:13:18;17.95;;;10.15;;
64842;SDS011;51310;52.198;5.422;2022-12-18T11:15:51;19.65;;;10.18;;
64842;SDS011;51310;52.198;5.422;2022-12-18T11:18:33;17.80;;;9.43;;
64842;SDS011;51310;52.198;5.422;2022-12-18T11:21:11;17.25;;;9.73;;
64842;SDS011;51310;52.198;5.422;2022-12-18T11:23:44;17.90;;;10.05;;
64842;SDS011;51310;52.198;5.422;2022-12-18T11:26:16;17.88;;;9.82;;
64842;SDS011;51310;52.198;5.422;2022-12-18T11:28:49;19.77;;;9.10;;
64842;SDS011;51310;52.198;5.422;2022-12-18T11:31:33;17.90;;;9.85;;
64842;SDS011;51310;52.198;5.422;2022-12-18T11:34:00;18.98;;;9.98;;
64842;SDS011;51310;52.198;5.422;2022-12-18T11:36:44;19.20;;;10.15;;
64842;SDS011;51310;52.198;5.422;2022-12-18T11:39:31;16.90;;;8.93;;
64842;SDS011;51310;52.198;5.422;2022-12-18T11:42:18;17.95;;;9.50;;
64842;SDS011;51310;52.198;5.422;2022-12-18T11:44:59;19.58;;;9.80;;
64842;SDS011;51310;52.198;5.422;2022-12-18T11:48:17;18.77;;;9.10;;
64842;SDS011;51310;52.198;5.422;2022-12-18T11:50:55;17.58;;;9.02;;
64842;SDS011;51310;52.198;5.422;2022-12-18T11:53:26;18.40;;;9.80;;
64842;SDS011;51310;52.198;5.422;2022-12-18T11:58:47;20.00;;;9.35;;
64842;SDS011;51310;52.198;5.422;2022-12-18T12:13:43;18.23;;;9.57;;
64842;SDS011;51310;52.198;5.422;2022-12-18T12:19:43;17.25;;;9.18;;
64842;SDS011;51310;52.198;5.422;2022-12-18T12:40:03;21.25;;;9.68;;
64842;SDS011;51310;52.198;5.422;2022-12-18T12:42:34;18.85;;;10.43;;
64842;SDS011;51310;52.198;5.422;2022-12-18T12:45:37;18.27;;;9.35;;
64842;SDS011;51310;52.198;5.422;2022-12-18T12:48:18;16.65;;;9.82;;
64842;SDS011;51310;52.198;5.422;2022-12-18T12:51:25;17.45;;;9.52;;
64842;SDS011;51310;52.198;5.422;2022-12-18T12:53:56;17.70;;;9.53;;
64842;SDS011;51310;52.198;5.422;2022-12-18T12:56:25;22.23;;;11.05;;
64842;SDS011;51310;52.198;5.422;2022-12-18T13:05:39;19.20;;;10.55;;
64842;SDS011;51310;52.198;5.422;2022-12-18T13:08:26;19.23;;;10.35;;
64842;SDS011;51310;52.198;5.422;2022-12-18T13:10:59;18.60;;;9.23;;
64842;SDS011;51310;52.198;5.422;2022-12-18T13:13:51;18.00;;;10.05;;
64842;SDS011;51310;52.198;5.422;2022-12-18T13:16:22;17.25;;;10.18;;
64842;SDS011;51310;52.198;5.422;2022-12-18T13:18:56;19.10;;;10.93;;
64842;SDS011;51310;52.198;5.422;2022-12-18T13:21:27;19.02;;;10.70;;
64842;SDS011;51310;52.198;5.422;2022-12-18T13:24:14;19.43;;;10.87;;
64842;SDS011;51310;52.198;5.422;2022-12-18T13:26:59;19.00;;;10.48;;
64842;SDS011;51310;52.198;5.422;2022-12-18T13:29:58;19.70;;;10.60;;
64842;SDS011;51310;52.198;5.422;2022-12-18T13:32:22;22.90;;;11.23;;
64842;SDS011;51310;52.198;5.422;2022-12-18T13:37:55;17.35;;;10.63;;
64842;SDS011;51310;52.198;5.422;2022-12-18T13:45:58;19.43;;;10.13;;
64842;SDS011;51310;52.198;5.422;2022-12-18T13:48:33;21.13;;;10.85;;
64842;SDS011;51310;52.198;5.422;2022-12-18T13:51:04;17.98;;;9.63;;
64842;SDS011;51310;52.198;5.422;2022-12-18T13:53:37;18.27;;;10.07;;
64842;SDS011;51310;52.198;5.422;2022-12-18T13:56:17;20.98;;;10.63;;
64842;SDS011;51310;52.198;5.422;2022-12-18T14:01:58;18.85;;;10.00;;
64842;SDS011;51310;52.198;5.422;2022-12-18T14:04:37;22.70;;;11.13;;
64842;SDS011;51310;52.198;5.422;2022-12-18T14:07:04;19.42;;;10.43;;
64842;SDS011;51310;52.198;5.422;2022-12-18T14:09:45;19.08;;;10.40;;
64842;SDS011;51310;52.198;5.422;2022-12-18T14:12:32;19.45;;;11.38;;
64842;SDS011;51310;52.198;5.422;2022-12-18T14:18:03;20.02;;;11.70;;
64842;SDS011;51310;52.198;5.422;2022-12-18T14:21:23;19.95;;;10.65;;
64842;SDS011;51310;52.198;5.422;2022-12-18T14:26:49;24.25;;;11.27;;
64842;SDS011;51310;52.198;5.422;2022-12-18T14:29:21;20.47;;;10.93;;
64842;SDS011;51310;52.198;5.422;2022-12-18T14:32:10;20.00;;;10.38;;
64842;SDS011;51310;52.198;5.422;2022-12-18T14:34:51;21.20;;;10.77;;
64842;SDS011;51310;52.198;5.422;2022-12-18T14:37:21;19.97;;;10.97;;
64842;SDS011;51310;52.198;5.422;2022-12-18T14:39:59;22.73;;;11.43;;
64842;SDS011;51310;52.198;5.422;2022-12-18T14:42:31;21.42;;;11.10;;
64842;SDS011;51310;52.198;5.422;2022-12-18T14:48:16;17.98;;;10.40;;
64842;SDS011;51310;52.198;5.422;2022-12-18T14:50:54;23.45;;;11.52;;
64842;SDS011;51310;52.198;5.422;2022-12-18T14:53:35;21.27;;;11.88;;
64842;SDS011;51310;52.198;5.422;2022-12-18T14:56:13;26.10;;;12.77;;
64842;SDS011;51310;52.198;5.422;2022-12-18T14:59:33;21.38;;;11.48;;
64842;SDS011;51310;52.198;5.422;2022-12-18T15:05:00;21.17;;;11.05;;
64842;SDS011;51310;52.198;5.422;2022-12-18T15:07:56;21.08;;;11.55;;
64842;SDS011;51310;52.198;5.422;2022-12-18T15:17:59;22.67;;;12.43;;
64842;SDS011;51310;52.198;5.422;2022-12-18T15:20:29;23.75;;;11.73;;
64842;SDS011;51310;52.198;5.422;2022-12-18T15:23:05;23.13;;;11.97;;
64842;SDS011;51310;52.198;5.422;2022-12-18T15:25:42;21.67;;;10.93;;
64842;SDS011;51310;52.198;5.422;2022-12-18T15:36:17;27.38;;;13.73;;
64842;SDS011;51310;52.198;5.422;2022-12-18T15:38:47;27.60;;;13.48;;
64842;SDS011;51310;52.198;5.422;2022-12-18T15:41:16;26.50;;;13.55;;
64842;SDS011;51310;52.198;5.422;2022-12-18T15:43:46;26.10;;;13.80;;
64842;SDS011;51310;52.198;5.422;2022-12-18T15:46:25;27.45;;;13.85;;
64842;SDS011;51310;52.198;5.422;2022-12-18T15:48:56;24.52;;;12.45;;
64842;SDS011;51310;52.198;5.422;2022-12-18T15:51:23;26.60;;;12.82;;
64842;SDS011;51310;52.198;5.422;2022-12-18T15:54:03;23.55;;;12.60;;
64842;SDS011;51310;52.198;5.422;2022-12-18T15:56:36;20.63;;;11.47;;
64842;SDS011;51310;52.198;5.422;2022-12-18T15:59:21;25.75;;;12.52;;
64842;SDS011;51310;52.198;5.422;2022-12-18T16:01:48;21.83;;;11.63;;
64842;SDS011;51310;52.198;5.422;2022-12-18T16:04:21;24.20;;;11.85;;
64842;SDS011;51310;52.198;5.422;2022-12-18T16:06:48;23.70;;;12.80;;
64842;SDS011;51310;52.198;5.422;2022-12-18T16:09:16;23.50;;;12.60;;
64842;SDS011;51310;52.198;5.422;2022-12-18T16:11:42;24.73;;;12.27;;
64842;SDS011;51310;52.198;5.422;2022-12-18T16:14:21;23.20;;;12.85;;
64842;SDS011;51310;52.198;5.422;2022-12-18T16:16:54;33.88;;;13.50;;
64842;SDS011;51310;52.198;5.422;2022-12-18T16:19:24;23.25;;;12.77;;
64842;SDS011;51310;52.198;5.422;2022-12-18T16:21:51;27.73;;;13.52;;
64842;SDS011;51310;52.198;5.422;2022-12-18T16:24:22;23.38;;;12.70;;
64842;SDS011;51310;52.198;5.422;2022-12-18T16:26:56;25.52;;;12.60;;
64842;SDS011;51310;52.198;5.422;2022-12-18T16:29:25;22.60;;;12.32;;
64842;SDS011;51310;52.198;5.422;2022-12-18T16:31:54;22.53;;;12.33;;
64842;SDS011;51310;52.198;5.422;2022-12-18T16:36:59;26.70;;;13.70;;
64842;SDS011;51310;52.198;5.422;2022-12-18T16:39:33;22.10;;;12.30;;
64842;SDS011;51310;52.198;5.422;2022-12-18T16:42:01;24.42;;;13.13;;
64842;SDS011;51310;52.198;5.422;2022-12-18T16:44:30;24.27;;;13.30;;
64842;SDS011;51310;52.198;5.422;2022-12-18T16:46:56;29.10;;;13.38;;
64842;SDS011;51310;52.198;5.422;2022-12-18T16:49:26;26.70;;;14.10;;
64842;SDS011;51310;52.198;5.422;2022-12-18T16:51:53;26.17;;;12.52;;
64842;SDS011;51310;52.198;5.422;2022-12-18T16:54:19;21.80;;;12.60;;
64842;SDS011;51310;52.198;5.422;2022-12-18T16:56:45;25.15;;;13.30;;
64842;SDS011;51310;52.198;5.422;2022-12-18T16:59:14;24.80;;;12.90;;
64842;SDS011;51310;52.198;5.422;2022-12-18T17:01:40;25.80;;;13.35;;
64842;SDS011;51310;52.198;5.422;2022-12-18T17:04:07;25.38;;;13.48;;
64842;SDS011;51310;52.198;5.422;2022-12-18T17:06:35;29.00;;;14.68;;
64842;SDS011;51310;52.198;5.422;2022-12-18T17:09:07;27.20;;;14.23;;
64842;SDS011;51310;52.198;5.422;2022-12-18T17:11:39;28.13;;;14.35;;